sensor_id;sensor_type;location;lat;lon;timestamp;temperature;humidity
39045;DHT22;52192;52.002;5.956;2022-08-18T00:02:10;22.20;80.50
39045;DHT22;52192;52.002;5.956;2022-08-18T00:04:36;22.20;80.40
39045;DHT22;52192;52.002;5.956;2022-08-18T00:07:06;22.10;80.30
39045;DHT22;52192;52.002;5.956;2022-08-18T00:09:34;22.20;80.30
39045;DHT22;52192;52.002;5.956;2022-08-18T00:12:01;22.10;80.20
39045;DHT22;52192;52.002;5.956;2022-08-18T00:14:27;22.20;80.30
39045;DHT22;52192;52.002;5.956;2022-08-18T00:16:53;22.10;80.30
39045;DHT22;52192;52.002;5.956;2022-08-18T00:19:19;22.10;80.30
39045;DHT22;52192;52.002;5.956;2022-08-18T00:21:44;22.10;80.30
39045;DHT22;52192;52.002;5.956;2022-08-18T00:24:10;22.10;80.30
39045;DHT22;52192;52.002;5.956;2022-08-18T00:26:35;22.10;80.20
39045;DHT22;52192;52.002;5.956;2022-08-18T00:29:01;22.10;80.30
39045;DHT22;52192;52.002;5.956;2022-08-18T00:31:26;22.00;80.30
39045;DHT22;52192;52.002;5.956;2022-08-18T00:33:53;22.00;80.50
39045;DHT22;52192;52.002;5.956;2022-08-18T00:36:19;22.00;80.60
39045;DHT22;52192;52.002;5.956;2022-08-18T00:38:45;22.00;80.60
39045;DHT22;52192;52.002;5.956;2022-08-18T00:41:10;22.00;80.60
39045;DHT22;52192;52.002;5.956;2022-08-18T00:43:39;22.00;80.60
39045;DHT22;52192;52.002;5.956;2022-08-18T00:46:07;22.00;80.50
39045;DHT22;52192;52.002;5.956;2022-08-18T00:48:33;21.90;80.50
39045;DHT22;52192;52.002;5.956;2022-08-18T00:51:00;21.90;80.50
39045;DHT22;52192;52.002;5.956;2022-08-18T00:55:54;21.90;80.60
39045;DHT22;52192;52.002;5.956;2022-08-18T00:58:36;21.90;80.60
39045;DHT22;52192;52.002;5.956;2022-08-18T01:01:04;21.90;80.60
39045;DHT22;52192;52.002;5.956;2022-08-18T01:03:30;21.90;80.60
39045;DHT22;52192;52.002;5.956;2022-08-18T01:08:23;21.90;80.60
39045;DHT22;52192;52.002;5.956;2022-08-18T01:10:49;21.90;80.70
39045;DHT22;52192;52.002;5.956;2022-08-18T01:13:15;21.90;80.80
39045;DHT22;52192;52.002;5.956;2022-08-18T01:15:40;21.80;80.70
39045;DHT22;52192;52.002;5.956;2022-08-18T01:18:08;21.80;80.70
39045;DHT22;52192;52.002;5.956;2022-08-18T01:24:09;21.80;80.90
39045;DHT22;52192;52.002;5.956;2022-08-18T01:26:37;21.70;80.90
39045;DHT22;52192;52.002;5.956;2022-08-18T01:29:04;21.70;80.90
39045;DHT22;52192;52.002;5.956;2022-08-18T01:31:32;21.70;80.90
39045;DHT22;52192;52.002;5.956;2022-08-18T01:33:59;21.60;80.80
39045;DHT22;52192;52.002;5.956;2022-08-18T01:36:25;21.60;80.80
39045;DHT22;52192;52.002;5.956;2022-08-18T01:38:51;21.70;80.80
39045;DHT22;52192;52.002;5.956;2022-08-18T01:41:18;21.70;80.80
39045;DHT22;52192;52.002;5.956;2022-08-18T01:43:43;21.70;80.70
39045;DHT22;52192;52.002;5.956;2022-08-18T01:46:10;21.70;80.60
39045;DHT22;52192;52.002;5.956;2022-08-18T01:48:36;21.70;80.60
39045;DHT22;52192;52.002;5.956;2022-08-18T01:51:03;21.60;80.60
39045;DHT22;52192;52.002;5.956;2022-08-18T01:53:29;21.60;80.60
39045;DHT22;52192;52.002;5.956;2022-08-18T01:55:55;21.60;80.60
39045;DHT22;52192;52.002;5.956;2022-08-18T01:58:21;21.50;80.40
39045;DHT22;52192;52.002;5.956;2022-08-18T02:00:54;21.50;80.30
39045;DHT22;52192;52.002;5.956;2022-08-18T02:03:33;21.50;80.30
39045;DHT22;52192;52.002;5.956;2022-08-18T02:06:00;21.50;80.30
39045;DHT22;52192;52.002;5.956;2022-08-18T02:08:26;21.50;80.00
39045;DHT22;52192;52.002;5.956;2022-08-18T02:10:55;21.60;79.90
39045;DHT22;52192;52.002;5.956;2022-08-18T02:13:23;21.60;79.70
39045;DHT22;52192;52.002;5.956;2022-08-18T02:15:49;21.50;79.70
39045;DHT22;52192;52.002;5.956;2022-08-18T02:18:16;21.50;79.80
39045;DHT22;52192;52.002;5.956;2022-08-18T02:20:42;21.50;79.80
39045;DHT22;52192;52.002;5.956;2022-08-18T02:23:08;21.40;79.80
39045;DHT22;52192;52.002;5.956;2022-08-18T02:25:34;21.40;80.40
39045;DHT22;52192;52.002;5.956;2022-08-18T02:27:59;21.40;79.90
39045;DHT22;52192;52.002;5.956;2022-08-18T02:30:25;21.40;79.90
39045;DHT22;52192;52.002;5.956;2022-08-18T02:32:50;21.40;79.80
39045;DHT22;52192;52.002;5.956;2022-08-18T02:35:16;21.40;79.80
39045;DHT22;52192;52.002;5.956;2022-08-18T02:37:42;21.40;79.70
39045;DHT22;52192;52.002;5.956;2022-08-18T02:40:12;21.40;80.20
39045;DHT22;52192;52.002;5.956;2022-08-18T02:42:38;21.40;79.40
39045;DHT22;52192;52.002;5.956;2022-08-18T02:45:04;21.40;79.50
39045;DHT22;52192;52.002;5.956;2022-08-18T02:47:30;21.40;79.50
39045;DHT22;52192;52.002;5.956;2022-08-18T02:49:56;21.40;79.60
39045;DHT22;52192;52.002;5.956;2022-08-18T02:52:22;21.40;79.60
39045;DHT22;52192;52.002;5.956;2022-08-18T02:54:49;21.40;79.60
39045;DHT22;52192;52.002;5.956;2022-08-18T02:57:14;21.40;79.60
39045;DHT22;52192;52.002;5.956;2022-08-18T02:59:40;21.40;80.20
39045;DHT22;52192;52.002;5.956;2022-08-18T03:02:06;21.30;79.70
39045;DHT22;52192;52.002;5.956;2022-08-18T03:04:33;21.30;79.90
39045;DHT22;52192;52.002;5.956;2022-08-18T03:07:01;21.30;79.80
39045;DHT22;52192;52.002;5.956;2022-08-18T03:09:27;21.30;79.80
39045;DHT22;52192;52.002;5.956;2022-08-18T03:11:53;21.20;79.70
39045;DHT22;52192;52.002;5.956;2022-08-18T03:14:19;21.30;79.90
39045;DHT22;52192;52.002;5.956;2022-08-18T03:16:45;21.20;79.90
39045;DHT22;52192;52.002;5.956;2022-08-18T03:19:12;21.30;79.90
39045;DHT22;52192;52.002;5.956;2022-08-18T03:21:40;21.30;79.80
39045;DHT22;52192;52.002;5.956;2022-08-18T03:24:06;21.40;79.70
39045;DHT22;52192;52.002;5.956;2022-08-18T03:26:32;21.40;79.60
39045;DHT22;52192;52.002;5.956;2022-08-18T03:28:58;21.50;79.50
39045;DHT22;52192;52.002;5.956;2022-08-18T03:31:24;21.50;79.60
39045;DHT22;52192;52.002;5.956;2022-08-18T03:33:50;21.50;79.40
39045;DHT22;52192;52.002;5.956;2022-08-18T03:36:18;21.50;79.40
39045;DHT22;52192;52.002;5.956;2022-08-18T03:38:44;21.50;79.40
39045;DHT22;52192;52.002;5.956;2022-08-18T03:41:10;21.50;79.30
39045;DHT22;52192;52.002;5.956;2022-08-18T03:43:37;21.50;79.30
39045;DHT22;52192;52.002;5.956;2022-08-18T03:46:03;21.50;79.30
39045;DHT22;52192;52.002;5.956;2022-08-18T03:48:30;21.40;79.30
39045;DHT22;52192;52.002;5.956;2022-08-18T03:51:01;21.40;79.50
39045;DHT22;52192;52.002;5.956;2022-08-18T03:53:27;21.40;79.60
39045;DHT22;52192;52.002;5.956;2022-08-18T03:55:53;21.40;79.60
39045;DHT22;52192;52.002;5.956;2022-08-18T03:58:18;21.40;79.60
39045;DHT22;52192;52.002;5.956;2022-08-18T04:00:44;21.40;79.70
39045;DHT22;52192;52.002;5.956;2022-08-18T04:03:09;21.40;79.70
39045;DHT22;52192;52.002;5.956;2022-08-18T04:05:38;21.40;79.70
39045;DHT22;52192;52.002;5.956;2022-08-18T04:08:03;21.40;79.70
39045;DHT22;52192;52.002;5.956;2022-08-18T04:10:31;21.40;79.60
39045;DHT22;52192;52.002;5.956;2022-08-18T04:12:56;21.40;79.60
39045;DHT22;52192;52.002;5.956;2022-08-18T04:15:23;21.40;79.70
39045;DHT22;52192;52.002;5.956;2022-08-18T04:17:48;21.40;79.60
39045;DHT22;52192;52.002;5.956;2022-08-18T04:20:14;21.40;79.50
39045;DHT22;52192;52.002;5.956;2022-08-18T04:22:41;21.50;79.50
39045;DHT22;52192;52.002;5.956;2022-08-18T04:25:07;21.40;79.50
39045;DHT22;52192;52.002;5.956;2022-08-18T04:27:35;21.40;79.50
39045;DHT22;52192;52.002;5.956;2022-08-18T04:30:04;21.40;79.50
39045;DHT22;52192;52.002;5.956;2022-08-18T04:32:30;21.40;79.50
39045;DHT22;52192;52.002;5.956;2022-08-18T04:34:56;21.40;79.70
39045;DHT22;52192;52.002;5.956;2022-08-18T04:37:21;21.30;79.70
39045;DHT22;52192;52.002;5.956;2022-08-18T04:39:47;21.30;79.90
39045;DHT22;52192;52.002;5.956;2022-08-18T04:42:13;21.30;79.90
39045;DHT22;52192;52.002;5.956;2022-08-18T04:44:40;21.30;79.80
39045;DHT22;52192;52.002;5.956;2022-08-18T04:47:06;21.40;79.80
39045;DHT22;52192;52.002;5.956;2022-08-18T04:49:33;21.30;79.80
39045;DHT22;52192;52.002;5.956;2022-08-18T04:51:58;21.30;79.80
39045;DHT22;52192;52.002;5.956;2022-08-18T04:54:44;21.30;79.80
39045;DHT22;52192;52.002;5.956;2022-08-18T04:57:11;21.30;79.80
39045;DHT22;52192;52.002;5.956;2022-08-18T04:59:37;21.30;79.80
39045;DHT22;52192;52.002;5.956;2022-08-18T05:02:04;21.30;79.80
39045;DHT22;52192;52.002;5.956;2022-08-18T05:04:33;21.30;79.90
39045;DHT22;52192;52.002;5.956;2022-08-18T05:06:59;21.30;79.90
39045;DHT22;52192;52.002;5.956;2022-08-18T05:09:25;21.30;79.90
39045;DHT22;52192;52.002;5.956;2022-08-18T05:11:50;21.30;80.00
39045;DHT22;52192;52.002;5.956;2022-08-18T05:14:16;21.30;80.10
39045;DHT22;52192;52.002;5.956;2022-08-18T05:16:41;21.30;80.20
39045;DHT22;52192;52.002;5.956;2022-08-18T05:19:08;21.30;80.30
39045;DHT22;52192;52.002;5.956;2022-08-18T05:21:34;21.30;80.30
39045;DHT22;52192;52.002;5.956;2022-08-18T05:24:01;21.40;80.80
39045;DHT22;52192;52.002;5.956;2022-08-18T05:26:27;21.30;80.30
39045;DHT22;52192;52.002;5.956;2022-08-18T05:28:52;21.30;80.50
39045;DHT22;52192;52.002;5.956;2022-08-18T05:31:19;21.20;80.60
39045;DHT22;52192;52.002;5.956;2022-08-18T05:33:46;21.20;80.70
39045;DHT22;52192;52.002;5.956;2022-08-18T05:36:18;21.20;80.80
39045;DHT22;52192;52.002;5.956;2022-08-18T05:38:53;21.20;80.90
39045;DHT22;52192;52.002;5.956;2022-08-18T05:43:46;21.10;81.10
39045;DHT22;52192;52.002;5.956;2022-08-18T05:46:13;21.10;81.30
39045;DHT22;52192;52.002;5.956;2022-08-18T05:48:39;21.10;81.30
39045;DHT22;52192;52.002;5.956;2022-08-18T05:51:16;21.20;81.10
39045;DHT22;52192;52.002;5.956;2022-08-18T05:53:43;21.30;81.00
39045;DHT22;52192;52.002;5.956;2022-08-18T05:56:30;21.30;80.80
39045;DHT22;52192;52.002;5.956;2022-08-18T05:59:16;21.40;80.80
39045;DHT22;52192;52.002;5.956;2022-08-18T06:01:45;21.40;80.70
39045;DHT22;52192;52.002;5.956;2022-08-18T06:04:27;21.40;80.70
39045;DHT22;52192;52.002;5.956;2022-08-18T06:06:55;21.40;80.70
39045;DHT22;52192;52.002;5.956;2022-08-18T06:09:27;21.50;80.60
39045;DHT22;52192;52.002;5.956;2022-08-18T06:11:55;21.60;80.40
39045;DHT22;52192;52.002;5.956;2022-08-18T06:14:22;21.60;80.20
39045;DHT22;52192;52.002;5.956;2022-08-18T06:22:04;21.70;79.90
39045;DHT22;52192;52.002;5.956;2022-08-18T06:37:20;21.90;79.60
39045;DHT22;52192;52.002;5.956;2022-08-18T06:39:49;21.90;79.40
39045;DHT22;52192;52.002;5.956;2022-08-18T06:42:18;22.00;79.10
39045;DHT22;52192;52.002;5.956;2022-08-18T06:44:53;22.10;79.70
39045;DHT22;52192;52.002;5.956;2022-08-18T06:47:24;22.10;79.20
39045;DHT22;52192;52.002;5.956;2022-08-18T06:50:40;22.10;79.10
39045;DHT22;52192;52.002;5.956;2022-08-18T06:52:56;22.20;78.80
39045;DHT22;52192;52.002;5.956;2022-08-18T06:55:39;22.20;78.70
39045;DHT22;52192;52.002;5.956;2022-08-18T06:58:06;22.20;78.80
39045;DHT22;52192;52.002;5.956;2022-08-18T07:01:05;22.30;78.70
39045;DHT22;52192;52.002;5.956;2022-08-18T07:06:22;22.60;78.10
39045;DHT22;52192;52.002;5.956;2022-08-18T07:08:49;22.80;77.80
39045;DHT22;52192;52.002;5.956;2022-08-18T07:11:23;22.90;77.50
39045;DHT22;52192;52.002;5.956;2022-08-18T07:13:51;23.00;77.30
39045;DHT22;52192;52.002;5.956;2022-08-18T07:16:38;23.10;77.00
39045;DHT22;52192;52.002;5.956;2022-08-18T07:19:21;23.10;76.50
39045;DHT22;52192;52.002;5.956;2022-08-18T07:22:11;23.00;76.50
39045;DHT22;52192;52.002;5.956;2022-08-18T07:24:40;22.90;76.70
39045;DHT22;52192;52.002;5.956;2022-08-18T07:32:19;22.70;77.10
39045;DHT22;52192;52.002;5.956;2022-08-18T07:34:47;22.70;77.30
39045;DHT22;52192;52.002;5.956;2022-08-18T07:37:18;22.70;77.00
39045;DHT22;52192;52.002;5.956;2022-08-18T07:39:46;22.80;76.80
39045;DHT22;52192;52.002;5.956;2022-08-18T07:45:17;23.20;75.90
39045;DHT22;52192;52.002;5.956;2022-08-18T07:50:27;23.20;75.20
39045;DHT22;52192;52.002;5.956;2022-08-18T07:53:21;23.20;75.50
39045;DHT22;52192;52.002;5.956;2022-08-18T07:55:53;23.30;75.30
39045;DHT22;52192;52.002;5.956;2022-08-18T07:58:25;23.40;74.60
39045;DHT22;52192;52.002;5.956;2022-08-18T08:00:55;23.40;74.70
39045;DHT22;52192;52.002;5.956;2022-08-18T08:06:08;23.70;74.50
39045;DHT22;52192;52.002;5.956;2022-08-18T08:08:39;23.90;74.00
39045;DHT22;52192;52.002;5.956;2022-08-18T08:16:15;24.30;72.90
39045;DHT22;52192;52.002;5.956;2022-08-18T08:21:30;24.20;72.30
39045;DHT22;52192;52.002;5.956;2022-08-18T08:24:17;24.10;72.60
39045;DHT22;52192;52.002;5.956;2022-08-18T08:29:19;24.10;72.50
39045;DHT22;52192;52.002;5.956;2022-08-18T08:36:39;24.30;72.00
39045;DHT22;52192;52.002;5.956;2022-08-18T08:39:09;24.40;71.50
39045;DHT22;52192;52.002;5.956;2022-08-18T08:41:56;24.60;71.00
39045;DHT22;52192;52.002;5.956;2022-08-18T08:44:31;24.90;70.80
39045;DHT22;52192;52.002;5.956;2022-08-18T08:47:42;25.00;70.10
39045;DHT22;52192;52.002;5.956;2022-08-18T08:49:49;25.00;69.80
39045;DHT22;52192;52.002;5.956;2022-08-18T08:52:21;24.90;69.90
39045;DHT22;52192;52.002;5.956;2022-08-18T08:54:57;24.70;70.00
39045;DHT22;52192;52.002;5.956;2022-08-18T09:00:09;24.50;70.30
39045;DHT22;52192;52.002;5.956;2022-08-18T09:05:07;24.70;70.20
39045;DHT22;52192;52.002;5.956;2022-08-18T09:21:06;25.90;67.30
39045;DHT22;52192;52.002;5.956;2022-08-18T09:23:42;26.10;66.90
39045;DHT22;52192;52.002;5.956;2022-08-18T09:26:25;26.40;66.40
39045;DHT22;52192;52.002;5.956;2022-08-18T09:29:17;26.50;66.20
39045;DHT22;52192;52.002;5.956;2022-08-18T09:31:44;26.60;65.80
39045;DHT22;52192;52.002;5.956;2022-08-18T09:39:25;26.20;65.60
39045;DHT22;52192;52.002;5.956;2022-08-18T09:42:12;26.00;65.40
39045;DHT22;52192;52.002;5.956;2022-08-18T09:47:57;25.70;66.30
39045;DHT22;52192;52.002;5.956;2022-08-18T09:55:01;25.40;66.50
39045;DHT22;52192;52.002;5.956;2022-08-18T09:57:27;25.30;66.80
39045;DHT22;52192;52.002;5.956;2022-08-18T10:07:37;25.40;65.80
39045;DHT22;52192;52.002;5.956;2022-08-18T10:12:50;25.40;65.20
39045;DHT22;52192;52.002;5.956;2022-08-18T10:23:03;26.60;63.00
39045;DHT22;52192;52.002;5.956;2022-08-18T10:27:57;26.60;63.50
39045;DHT22;52192;52.002;5.956;2022-08-18T10:32:55;26.50;63.70
39045;DHT22;52192;52.002;5.956;2022-08-18T10:38:01;26.20;64.30
39045;DHT22;52192;52.002;5.956;2022-08-18T10:40:27;26.00;64.40
39045;DHT22;52192;52.002;5.956;2022-08-18T10:42:59;25.90;64.80
39045;DHT22;52192;52.002;5.956;2022-08-18T10:50:29;25.60;65.50
39045;DHT22;52192;52.002;5.956;2022-08-18T10:53:00;25.70;65.60
39045;DHT22;52192;52.002;5.956;2022-08-18T10:56:17;25.80;66.20
39045;DHT22;52192;52.002;5.956;2022-08-18T11:04:07;26.10;65.20
39045;DHT22;52192;52.002;5.956;2022-08-18T11:06:54;26.10;65.10
39045;DHT22;52192;52.002;5.956;2022-08-18T11:09:24;26.20;65.00
39045;DHT22;52192;52.002;5.956;2022-08-18T11:11:51;26.30;65.00
39045;DHT22;52192;52.002;5.956;2022-08-18T11:14:25;26.30;64.60
39045;DHT22;52192;52.002;5.956;2022-08-18T11:19:21;26.30;64.70
39045;DHT22;52192;52.002;5.956;2022-08-18T11:21:48;26.10;64.50
39045;DHT22;52192;52.002;5.956;2022-08-18T11:26:47;26.00;64.00
39045;DHT22;52192;52.002;5.956;2022-08-18T11:29:26;25.90;64.20
39045;DHT22;52192;52.002;5.956;2022-08-18T11:34:46;25.90;64.30
39045;DHT22;52192;52.002;5.956;2022-08-18T11:39:58;25.90;64.20
39045;DHT22;52192;52.002;5.956;2022-08-18T11:42:28;25.90;64.20
39045;DHT22;52192;52.002;5.956;2022-08-18T11:45:00;26.00;64.20
39045;DHT22;52192;52.002;5.956;2022-08-18T11:47:27;26.00;64.20
39045;DHT22;52192;52.002;5.956;2022-08-18T11:50:11;26.00;64.10
39045;DHT22;52192;52.002;5.956;2022-08-18T11:52:47;26.00;63.60
39045;DHT22;52192;52.002;5.956;2022-08-18T11:55:18;26.00;63.80
39045;DHT22;52192;52.002;5.956;2022-08-18T11:57:50;26.00;63.40
39045;DHT22;52192;52.002;5.956;2022-08-18T12:03:01;26.00;63.50
39045;DHT22;52192;52.002;5.956;2022-08-18T12:05:27;26.00;63.20
39045;DHT22;52192;52.002;5.956;2022-08-18T12:07:52;26.10;63.10
39045;DHT22;52192;52.002;5.956;2022-08-18T12:10:20;26.10;63.30
39045;DHT22;52192;52.002;5.956;2022-08-18T12:12:47;26.20;63.30
39045;DHT22;52192;52.002;5.956;2022-08-18T12:17:41;26.40;62.90
39045;DHT22;52192;52.002;5.956;2022-08-18T12:20:08;26.40;62.20
39045;DHT22;52192;52.002;5.956;2022-08-18T12:22:35;26.40;62.40
39045;DHT22;52192;52.002;5.956;2022-08-18T12:25:02;26.50;62.60
39045;DHT22;52192;52.002;5.956;2022-08-18T12:27:29;26.50;62.60
39045;DHT22;52192;52.002;5.956;2022-08-18T12:29:58;26.50;62.40
39045;DHT22;52192;52.002;5.956;2022-08-18T12:32:27;26.50;62.50
39045;DHT22;52192;52.002;5.956;2022-08-18T12:34:53;26.40;62.50
39045;DHT22;52192;52.002;5.956;2022-08-18T12:37:23;26.40;62.60
39045;DHT22;52192;52.002;5.956;2022-08-18T12:39:49;26.50;62.80
39045;DHT22;52192;52.002;5.956;2022-08-18T12:42:15;26.60;62.70
39045;DHT22;52192;52.002;5.956;2022-08-18T12:44:40;26.60;62.60
39045;DHT22;52192;52.002;5.956;2022-08-18T12:47:10;26.70;62.20
39045;DHT22;52192;52.002;5.956;2022-08-18T12:49:36;26.70;62.10
39045;DHT22;52192;52.002;5.956;2022-08-18T12:52:02;26.60;61.70
39045;DHT22;52192;52.002;5.956;2022-08-18T12:54:27;26.60;60.80
39045;DHT22;52192;52.002;5.956;2022-08-18T12:56:54;26.40;61.10
39045;DHT22;52192;52.002;5.956;2022-08-18T12:59:20;26.40;61.60
39045;DHT22;52192;52.002;5.956;2022-08-18T13:01:45;26.30;61.80
39045;DHT22;52192;52.002;5.956;2022-08-18T13:04:11;26.30;62.00
39045;DHT22;52192;52.002;5.956;2022-08-18T13:06:37;26.30;62.20
39045;DHT22;52192;52.002;5.956;2022-08-18T13:09:05;26.30;62.40
39045;DHT22;52192;52.002;5.956;2022-08-18T13:11:31;26.30;62.20
39045;DHT22;52192;52.002;5.956;2022-08-18T13:13:57;26.20;61.70
39045;DHT22;52192;52.002;5.956;2022-08-18T13:16:23;26.10;61.60
39045;DHT22;52192;52.002;5.956;2022-08-18T13:18:49;26.00;61.90
39045;DHT22;52192;52.002;5.956;2022-08-18T13:21:15;26.00;62.10
39045;DHT22;52192;52.002;5.956;2022-08-18T13:23:42;26.10;62.30
39045;DHT22;52192;52.002;5.956;2022-08-18T13:26:09;26.10;62.40
39045;DHT22;52192;52.002;5.956;2022-08-18T13:28:37;26.10;62.20
39045;DHT22;52192;52.002;5.956;2022-08-18T13:31:03;26.10;62.30
39045;DHT22;52192;52.002;5.956;2022-08-18T13:33:29;26.20;62.40
39045;DHT22;52192;52.002;5.956;2022-08-18T13:35:57;26.20;62.30
39045;DHT22;52192;52.002;5.956;2022-08-18T13:38:22;26.10;61.80
39045;DHT22;52192;52.002;5.956;2022-08-18T13:40:50;26.10;61.80
39045;DHT22;52192;52.002;5.956;2022-08-18T13:43:16;26.20;62.00
39045;DHT22;52192;52.002;5.956;2022-08-18T13:45:42;26.20;62.10
39045;DHT22;52192;52.002;5.956;2022-08-18T13:48:09;26.20;62.10
39045;DHT22;52192;52.002;5.956;2022-08-18T13:50:35;26.30;62.20
39045;DHT22;52192;52.002;5.956;2022-08-18T13:53:03;26.40;62.10
39045;DHT22;52192;52.002;5.956;2022-08-18T13:55:28;26.40;62.00
39045;DHT22;52192;52.002;5.956;2022-08-18T13:57:54;26.40;61.90
39045;DHT22;52192;52.002;5.956;2022-08-18T14:00:20;26.40;61.70
39045;DHT22;52192;52.002;5.956;2022-08-18T14:02:47;26.40;61.60
39045;DHT22;52192;52.002;5.956;2022-08-18T14:05:15;26.50;61.60
39045;DHT22;52192;52.002;5.956;2022-08-18T14:07:41;26.50;61.50
39045;DHT22;52192;52.002;5.956;2022-08-18T14:10:07;26.60;61.50
39045;DHT22;52192;52.002;5.956;2022-08-18T14:12:33;26.70;61.40
39045;DHT22;52192;52.002;5.956;2022-08-18T14:14:59;26.90;61.20
39045;DHT22;52192;52.002;5.956;2022-08-18T14:17:25;27.00;61.00
39045;DHT22;52192;52.002;5.956;2022-08-18T14:19:51;27.10;60.80
39045;DHT22;52192;52.002;5.956;2022-08-18T14:22:36;27.20;60.50
39045;DHT22;52192;52.002;5.956;2022-08-18T14:25:20;27.30;60.10
39045;DHT22;52192;52.002;5.956;2022-08-18T14:28:04;27.40;59.40
39045;DHT22;52192;52.002;5.956;2022-08-18T14:30:30;27.60;58.80
39045;DHT22;52192;52.002;5.956;2022-08-18T14:32:56;27.70;58.70
39045;DHT22;52192;52.002;5.956;2022-08-18T14:35:22;27.90;57.60
39045;DHT22;52192;52.002;5.956;2022-08-18T14:37:47;28.30;57.40
39045;DHT22;52192;52.002;5.956;2022-08-18T14:40:13;28.90;57.00
39045;DHT22;52192;52.002;5.956;2022-08-18T14:42:39;29.40;56.00
39045;DHT22;52192;52.002;5.956;2022-08-18T14:45:07;29.80;55.40
39045;DHT22;52192;52.002;5.956;2022-08-18T14:47:33;30.10;55.00
39045;DHT22;52192;52.002;5.956;2022-08-18T14:49:58;30.40;54.20
39045;DHT22;52192;52.002;5.956;2022-08-18T14:52:25;30.50;54.00
39045;DHT22;52192;52.002;5.956;2022-08-18T14:54:52;30.60;53.70
39045;DHT22;52192;52.002;5.956;2022-08-18T14:57:17;30.50;53.80
39045;DHT22;52192;52.002;5.956;2022-08-18T14:59:43;30.20;54.20
39045;DHT22;52192;52.002;5.956;2022-08-18T15:02:09;30.00;54.60
39045;DHT22;52192;52.002;5.956;2022-08-18T15:04:35;29.60;55.30
39045;DHT22;52192;52.002;5.956;2022-08-18T15:07:01;29.40;55.90
39045;DHT22;52192;52.002;5.956;2022-08-18T15:09:27;29.20;56.30
39045;DHT22;52192;52.002;5.956;2022-08-18T15:11:57;29.10;56.00
39045;DHT22;52192;52.002;5.956;2022-08-18T15:14:24;28.90;56.40
39045;DHT22;52192;52.002;5.956;2022-08-18T15:16:50;28.80;56.50
39045;DHT22;52192;52.002;5.956;2022-08-18T15:19:16;28.70;56.70
39045;DHT22;52192;52.002;5.956;2022-08-18T15:21:42;28.50;56.70
39045;DHT22;52192;52.002;5.956;2022-08-18T15:24:26;28.40;57.10
39045;DHT22;52192;52.002;5.956;2022-08-18T15:27:10;28.30;57.30
39045;DHT22;52192;52.002;5.956;2022-08-18T15:29:36;28.40;57.20
39045;DHT22;52192;52.002;5.956;2022-08-18T15:32:01;28.70;56.50
39045;DHT22;52192;52.002;5.956;2022-08-18T15:34:27;29.10;55.80
39045;DHT22;52192;52.002;5.956;2022-08-18T15:36:54;29.40;54.90
39045;DHT22;52192;52.002;5.956;2022-08-18T15:39:21;29.70;54.30
39045;DHT22;52192;52.002;5.956;2022-08-18T15:41:47;30.00;53.90
39045;DHT22;52192;52.002;5.956;2022-08-18T15:44:16;30.30;53.40
39045;DHT22;52192;52.002;5.956;2022-08-18T15:46:42;30.40;53.40
39045;DHT22;52192;52.002;5.956;2022-08-18T15:49:08;30.60;53.00
39045;DHT22;52192;52.002;5.956;2022-08-18T15:51:34;30.70;52.20
39045;DHT22;52192;52.002;5.956;2022-08-18T15:54:00;30.80;51.80
39045;DHT22;52192;52.002;5.956;2022-08-18T15:56:27;30.80;51.60
39045;DHT22;52192;52.002;5.956;2022-08-18T15:58:53;30.90;50.90
39045;DHT22;52192;52.002;5.956;2022-08-18T16:01:19;30.80;50.40
39045;DHT22;52192;52.002;5.956;2022-08-18T16:03:45;30.80;50.80
39045;DHT22;52192;52.002;5.956;2022-08-18T16:06:18;30.70;51.20
39045;DHT22;52192;52.002;5.956;2022-08-18T16:08:44;30.40;51.50
39045;DHT22;52192;52.002;5.956;2022-08-18T16:11:10;30.10;52.50
39045;DHT22;52192;52.002;5.956;2022-08-18T16:13:36;29.80;53.10
39045;DHT22;52192;52.002;5.956;2022-08-18T16:16:13;29.50;53.50
39045;DHT22;52192;52.002;5.956;2022-08-18T16:18:39;29.30;54.00
39045;DHT22;52192;52.002;5.956;2022-08-18T16:21:09;29.10;54.60
39045;DHT22;52192;52.002;5.956;2022-08-18T16:23:39;28.90;54.90
39045;DHT22;52192;52.002;5.956;2022-08-18T16:26:05;28.70;55.20
39045;DHT22;52192;52.002;5.956;2022-08-18T16:28:31;28.50;55.60
39045;DHT22;52192;52.002;5.956;2022-08-18T16:30:56;28.40;56.00
39045;DHT22;52192;52.002;5.956;2022-08-18T16:33:22;28.50;56.20
39045;DHT22;52192;52.002;5.956;2022-08-18T16:35:48;28.50;56.40
39045;DHT22;52192;52.002;5.956;2022-08-18T16:38:15;28.50;56.40
39045;DHT22;52192;52.002;5.956;2022-08-18T16:40:41;28.50;56.30
39045;DHT22;52192;52.002;5.956;2022-08-18T16:43:07;28.50;56.30
39045;DHT22;52192;52.002;5.956;2022-08-18T16:45:35;28.40;56.30
39045;DHT22;52192;52.002;5.956;2022-08-18T16:48:01;28.40;56.50
39045;DHT22;52192;52.002;5.956;2022-08-18T16:50:26;28.30;56.50
39045;DHT22;52192;52.002;5.956;2022-08-18T16:52:52;28.30;56.50
39045;DHT22;52192;52.002;5.956;2022-08-18T16:55:18;28.10;56.70
39045;DHT22;52192;52.002;5.956;2022-08-18T16:57:43;28.00;56.80
39045;DHT22;52192;52.002;5.956;2022-08-18T17:00:28;28.00;57.10
39045;DHT22;52192;52.002;5.956;2022-08-18T17:03:13;27.90;57.10
39045;DHT22;52192;52.002;5.956;2022-08-18T17:06:01;27.80;57.20
39045;DHT22;52192;52.002;5.956;2022-08-18T17:08:27;27.80;58.00
39045;DHT22;52192;52.002;5.956;2022-08-18T17:10:52;27.80;57.30
39045;DHT22;52192;52.002;5.956;2022-08-18T17:13:19;27.80;57.40
39045;DHT22;52192;52.002;5.956;2022-08-18T17:15:48;27.80;57.60
39045;DHT22;52192;52.002;5.956;2022-08-18T17:18:14;27.80;57.60
39045;DHT22;52192;52.002;5.956;2022-08-18T17:20:39;27.80;57.50
39045;DHT22;52192;52.002;5.956;2022-08-18T17:23:05;27.80;57.50
39045;DHT22;52192;52.002;5.956;2022-08-18T17:25:31;27.80;57.60
39045;DHT22;52192;52.002;5.956;2022-08-18T17:27:57;27.70;57.50
39045;DHT22;52192;52.002;5.956;2022-08-18T17:30:22;27.70;57.70
39045;DHT22;52192;52.002;5.956;2022-08-18T17:33:02;27.60;57.70
39045;DHT22;52192;52.002;5.956;2022-08-18T17:35:37;27.60;57.90
39045;DHT22;52192;52.002;5.956;2022-08-18T17:38:07;27.60;58.00
39045;DHT22;52192;52.002;5.956;2022-08-18T17:40:38;27.50;58.40
39045;DHT22;52192;52.002;5.956;2022-08-18T17:43:08;27.40;58.40
39045;DHT22;52192;52.002;5.956;2022-08-18T17:45:35;27.40;58.70
39045;DHT22;52192;52.002;5.956;2022-08-18T17:53:10;27.20;59.80
39045;DHT22;52192;52.002;5.956;2022-08-18T17:55:38;27.20;59.50
39045;DHT22;52192;52.002;5.956;2022-08-18T17:58:11;27.10;59.70
39045;DHT22;52192;52.002;5.956;2022-08-18T18:00:39;27.10;60.00
39045;DHT22;52192;52.002;5.956;2022-08-18T18:03:06;27.00;60.20
39045;DHT22;52192;52.002;5.956;2022-08-18T18:05:35;26.90;60.40
39045;DHT22;52192;52.002;5.956;2022-08-18T18:08:01;26.90;60.60
39045;DHT22;52192;52.002;5.956;2022-08-18T18:15:35;26.80;61.30